createdAt,value
2022-07-28T00:01:40.629Z,47.70
2022-07-28T00:04:15.417Z,47.80
2022-07-28T00:06:49.904Z,47.70
2022-07-28T00:09:24.120Z,47.70
2022-07-28T00:11:58.359Z,47.70
2022-07-28T00:14:32.777Z,47.70
2022-07-28T00:17:08.685Z,47.70
2022-07-28T00:19:42.865Z,47.60
2022-07-28T00:22:17.058Z,47.60
2022-07-28T00:24:51.345Z,47.70
2022-07-28T00:27:25.667Z,47.70
2022-07-28T00:30:00.101Z,47.70
2022-07-28T00:32:35.874Z,47.70
2022-07-28T00:35:10.665Z,47.70
2022-07-28T00:37:44.901Z,47.70
2022-07-28T00:40:43.500Z,47.70
2022-07-28T00:43:18.132Z,47.70
2022-07-28T00:45:52.668Z,47.70
2022-07-28T00:48:28.426Z,47.70
2022-07-28T00:51:02.582Z,47.60
2022-07-28T00:53:37.058Z,47.50
2022-07-28T00:56:11.477Z,47.50
2022-07-28T00:58:47.429Z,47.50
2022-07-28T01:01:22.403Z,47.50
2022-07-28T01:04:01.029Z,47.50
2022-07-28T01:06:51.067Z,47.40
2022-07-28T01:09:43.043Z,47.60
2022-07-28T01:12:27.921Z,47.60
2022-07-28T01:15:11.004Z,47.50
2022-07-28T01:17:52.755Z,47.50
2022-07-28T01:20:35.563Z,47.60
2022-07-28T01:23:29.493Z,47.60
2022-07-28T01:26:15.228Z,47.80
2022-07-28T01:29:02.226Z,47.60
2022-07-28T01:31:42.320Z,47.70
2022-07-28T01:34:20.040Z,47.50
2022-07-28T01:36:58.358Z,47.50
2022-07-28T01:39:36.402Z,47.40
2022-07-28T01:42:11.723Z,47.30
2022-07-28T01:44:50.225Z,47.30
2022-07-28T01:47:26.736Z,47.30
2022-07-28T01:50:03.646Z,47.30
2022-07-28T01:52:40.395Z,47.20
2022-07-28T01:55:16.000Z,47.30
2022-07-28T01:57:52.412Z,47.30
2022-07-28T02:00:27.775Z,47.30
2022-07-28T02:03:07.257Z,47.40
2022-07-28T02:05:43.781Z,47.40
2022-07-28T02:08:20.868Z,47.40
2022-07-28T02:11:14.982Z,47.50
2022-07-28T02:13:51.611Z,47.40
2022-07-28T02:16:28.805Z,47.40
2022-07-28T02:19:05.355Z,47.50
2022-07-28T02:21:40.740Z,47.50
2022-07-28T02:24:15.736Z,47.20
2022-07-28T02:26:54.902Z,47.30
2022-07-28T02:29:50.166Z,47.20
2022-07-28T02:32:30.782Z,47.30
2022-07-28T02:35:10.511Z,47.20
2022-07-28T02:37:58.687Z,47.20
2022-07-28T02:40:37.056Z,47.40
2022-07-28T02:43:15.758Z,47.20
2022-07-28T02:45:54.384Z,47.10
2022-07-28T02:48:31.568Z,47.40
2022-07-28T02:51:08.777Z,47.30
2022-07-28T02:53:44.234Z,47.30
2022-07-28T02:56:19.358Z,47.40
2022-07-28T02:58:55.684Z,47.30
2022-07-28T03:01:30.552Z,47.30
2022-07-28T03:04:07.372Z,47.30
2022-07-28T03:06:43.361Z,47.30
2022-07-28T03:09:17.504Z,47.30
2022-07-28T03:11:54.568Z,47.40
2022-07-28T03:14:28.539Z,47.30
2022-07-28T03:17:02.664Z,47.30
2022-07-28T03:19:36.914Z,47.20
2022-07-28T03:22:12.735Z,47.10
2022-07-28T03:24:51.029Z,47.10
2022-07-28T03:27:29.009Z,47.10
2022-07-28T03:30:07.715Z,47.00
2022-07-28T03:32:44.439Z,47.70
2022-07-28T03:35:19.907Z,47.20
2022-07-28T03:37:59.145Z,47.30
2022-07-28T03:40:34.392Z,47.20
2022-07-28T03:43:11.081Z,47.90
2022-07-28T03:45:46.569Z,47.30
2022-07-28T03:48:23.612Z,47.30
2022-07-28T03:50:57.916Z,47.30
2022-07-28T03:53:33.355Z,47.30
2022-07-28T03:56:07.374Z,47.30
2022-07-28T03:58:41.727Z,47.30
2022-07-28T04:01:19.141Z,47.30
2022-07-28T04:03:53.395Z,47.30
2022-07-28T04:06:27.455Z,47.10
2022-07-28T04:09:02.944Z,47.20
2022-07-28T04:11:37.070Z,47.20
2022-07-28T04:14:16.323Z,47.20
2022-07-28T04:16:50.824Z,47.10
2022-07-28T04:19:24.931Z,47.10
2022-07-28T04:21:59.070Z,47.20
2022-07-28T04:24:35.089Z,47.20
2022-07-28T04:27:09.093Z,47.20
2022-07-28T04:29:43.091Z,47.20
2022-07-28T04:32:17.070Z,47.30
2022-07-28T04:34:51.045Z,47.20
2022-07-28T04:37:25.060Z,47.20
2022-07-28T04:40:00.515Z,47.20
2022-07-28T04:42:35.222Z,47.10
2022-07-28T04:45:11.783Z,47.20
2022-07-28T04:47:45.799Z,47.10
2022-07-28T04:50:21.649Z,47.10
2022-07-28T04:53:04.924Z,47.10
2022-07-28T04:55:40.428Z,47.10
2022-07-28T04:58:14.434Z,47.10
2022-07-28T05:00:52.915Z,47.20
2022-07-28T05:03:27.697Z,47.20
2022-07-28T05:06:03.638Z,47.10
2022-07-28T05:08:37.683Z,47.10
2022-07-28T05:11:13.092Z,47.10
2022-07-28T05:13:47.014Z,47.10
2022-07-28T05:16:21.683Z,47.10
2022-07-28T05:18:55.915Z,47.10
2022-07-28T05:21:30.277Z,47.10
2022-07-28T05:24:04.533Z,47.10
2022-07-28T05:26:39.915Z,47.00
2022-07-28T05:29:13.901Z,47.00
2022-07-28T05:31:47.878Z,47.00
2022-07-28T05:34:21.881Z,47.00
2022-07-28T05:36:56.026Z,47.00
2022-07-28T05:39:32.097Z,47.00
2022-07-28T05:42:08.021Z,47.10
2022-07-28T05:44:41.886Z,47.00
2022-07-28T05:47:15.872Z,47.10
2022-07-28T05:49:49.873Z,47.10
2022-07-28T05:52:23.809Z,47.10
2022-07-28T05:54:57.848Z,47.00
2022-07-28T05:57:33.263Z,47.10
2022-07-28T06:00:09.710Z,47.10
2022-07-28T06:02:47.610Z,47.00
2022-07-28T06:05:25.010Z,47.00
2022-07-28T06:07:59.737Z,47.00
2022-07-28T06:10:47.990Z,47.00
2022-07-28T06:13:23.391Z,46.90
2022-07-28T06:15:59.132Z,46.90
2022-07-28T06:18:33.232Z,46.90
2022-07-28T06:21:07.250Z,46.90
2022-07-28T06:23:41.343Z,46.90
2022-07-28T06:26:15.507Z,46.90
2022-07-28T06:28:50.927Z,46.90
2022-07-28T06:31:25.006Z,46.90
2022-07-28T06:33:59.035Z,46.80
2022-07-28T06:36:33.035Z,46.80
2022-07-28T06:39:07.035Z,46.80
2022-07-28T06:41:42.240Z,46.80
2022-07-28T06:44:17.950Z,46.70
2022-07-28T06:46:52.261Z,46.70
2022-07-28T06:49:26.480Z,46.70
2022-07-28T06:52:00.602Z,46.70
2022-07-28T06:54:35.097Z,46.70
2022-07-28T06:57:09.623Z,46.70
2022-07-28T06:59:46.719Z,46.70
2022-07-28T07:02:23.860Z,46.70
2022-07-28T07:05:00.291Z,46.70
2022-07-28T07:07:34.217Z,46.70
2022-07-28T07:10:09.735Z,46.60
2022-07-28T07:12:43.723Z,46.60
2022-07-28T07:15:19.157Z,46.50
2022-07-28T07:17:54.339Z,46.50
2022-07-28T07:20:28.475Z,46.60
2022-07-28T07:23:02.416Z,46.50
2022-07-28T07:25:36.487Z,46.50
2022-07-28T07:28:11.050Z,46.50
2022-07-28T07:30:46.574Z,46.60
2022-07-28T07:33:20.546Z,46.50
2022-07-28T07:35:54.513Z,46.50
2022-07-28T07:38:29.406Z,46.50
2022-07-28T07:41:03.523Z,46.50
2022-07-28T07:43:37.458Z,46.40
2022-07-28T07:46:12.985Z,46.40
2022-07-28T07:48:47.022Z,46.40
2022-07-28T07:51:20.965Z,46.40
2022-07-28T07:53:54.906Z,46.40
2022-07-28T07:56:28.919Z,46.40
2022-07-28T07:59:02.875Z,46.40
2022-07-28T08:01:40.493Z,46.40
2022-07-28T08:04:14.974Z,46.40
2022-07-28T08:06:49.539Z,46.40
2022-07-28T08:09:23.657Z,46.40
2022-07-28T08:11:57.564Z,46.30
2022-07-28T08:14:31.614Z,46.40
2022-07-28T08:17:07.039Z,46.40
2022-07-28T08:19:41.946Z,46.30
2022-07-28T08:22:15.912Z,46.30
2022-07-28T08:24:49.924Z,46.30
2022-07-28T08:27:23.969Z,46.30
2022-07-28T08:29:58.076Z,46.30
2022-07-28T08:32:33.434Z,46.30
2022-07-28T08:35:31.684Z,46.30
2022-07-28T08:38:02.629Z,46.30
2022-07-28T08:40:39.632Z,46.30
2022-07-28T08:43:23.091Z,46.30
2022-07-28T08:45:58.882Z,46.20
2022-07-28T08:48:36.593Z,46.30
2022-07-28T08:51:12.051Z,46.20
2022-07-28T08:53:46.778Z,46.20
2022-07-28T08:56:21.791Z,46.30
2022-07-28T08:58:56.144Z,46.20
2022-07-28T09:01:38.136Z,46.20
2022-07-28T09:04:16.120Z,46.20
2022-07-28T09:06:50.320Z,46.20
2022-07-28T09:09:24.810Z,46.20
2022-07-28T09:11:58.800Z,46.30
2022-07-28T09:14:32.946Z,46.20
2022-07-28T09:17:07.014Z,46.20
2022-07-28T09:19:42.448Z,46.20
2022-07-28T09:22:16.889Z,46.10
2022-07-28T09:24:50.898Z,46.10
2022-07-28T09:27:24.910Z,46.20
2022-07-28T09:30:01.830Z,46.20
2022-07-28T09:32:36.107Z,46.10
2022-07-28T09:35:21.601Z,46.20
2022-07-28T09:38:01.428Z,46.10
2022-07-28T09:40:36.182Z,46.30
2022-07-28T09:43:11.824Z,46.20
2022-07-28T09:45:45.781Z,46.20
2022-07-28T09:48:19.858Z,46.20
2022-07-28T09:51:09.933Z,46.20
2022-07-28T09:53:44.647Z,46.20
2022-07-28T09:56:18.941Z,46.10
2022-07-28T09:58:58.181Z,46.10
2022-07-28T10:01:37.186Z,46.10
2022-07-28T10:04:11.441Z,46.10
2022-07-28T10:06:46.863Z,46.20
2022-07-28T10:09:28.165Z,46.10
2022-07-28T10:12:19.256Z,46.20
2022-07-28T10:14:54.810Z,46.20
2022-07-28T10:17:30.905Z,46.20
2022-07-28T10:20:07.779Z,46.10
2022-07-28T10:22:45.222Z,46.20
2022-07-28T10:25:22.362Z,46.20
2022-07-28T10:28:00.070Z,46.20
2022-07-28T10:30:40.255Z,46.20
2022-07-28T10:33:17.436Z,46.20
2022-07-28T10:35:55.430Z,46.30
2022-07-28T10:38:36.916Z,46.20
2022-07-28T10:41:12.842Z,46.20
2022-07-28T10:43:47.852Z,46.20
2022-07-28T10:46:23.649Z,46.20
2022-07-28T10:48:58.115Z,46.30
2022-07-28T10:51:32.713Z,46.30
2022-07-28T10:54:18.613Z,46.30
2022-07-28T10:57:04.921Z,46.80
2022-07-28T11:00:13.385Z,46.30
2022-07-28T11:02:50.473Z,46.20
2022-07-28T11:05:33.381Z,46.30
2022-07-28T11:08:09.940Z,46.30
2022-07-28T11:10:49.789Z,46.30
2022-07-28T11:13:32.985Z,46.30
2022-07-28T11:16:25.000Z,46.30
2022-07-28T11:19:08.029Z,46.30
2022-07-28T11:22:25.065Z,46.30
2022-07-28T11:25:22.132Z,46.30
2022-07-28T11:28:07.602Z,46.30
2022-07-28T11:30:53.535Z,46.30
2022-07-28T11:34:07.170Z,46.40
2022-07-28T11:37:00.346Z,46.40
2022-07-28T11:39:43.031Z,46.40
2022-07-28T11:42:28.186Z,46.40
2022-07-28T11:45:35.869Z,46.40
2022-07-28T11:48:16.470Z,46.30
2022-07-28T11:51:11.112Z,46.30
2022-07-28T11:53:46.674Z,46.30
2022-07-28T11:56:25.876Z,46.40
2022-07-28T11:59:00.965Z,46.40
2022-07-28T12:01:38.649Z,46.30
2022-07-28T12:04:14.854Z,46.40
2022-07-28T12:06:52.384Z,46.40
2022-07-28T12:09:41.754Z,46.40
2022-07-28T12:12:16.373Z,46.40
2022-07-28T12:14:50.709Z,46.30
2022-07-28T12:17:34.961Z,46.40
2022-07-28T12:20:13.970Z,46.40
2022-07-28T12:23:00.983Z,46.30
2022-07-28T12:25:45.268Z,46.40
2022-07-28T12:28:22.756Z,46.40
2022-07-28T12:31:10.704Z,46.40
2022-07-28T12:33:46.160Z,46.40
2022-07-28T12:36:21.936Z,46.40
2022-07-28T12:38:56.198Z,46.40
2022-07-28T12:41:34.328Z,46.40
2022-07-28T12:44:09.245Z,46.40
2022-07-28T12:46:48.950Z,46.40
2022-07-28T12:49:24.489Z,46.40
2022-07-28T12:51:59.372Z,46.40
2022-07-28T12:54:38.017Z,46.40
2022-07-28T12:57:12.235Z,46.40
2022-07-28T12:59:46.169Z,46.40
2022-07-28T13:02:36.398Z,46.40
2022-07-28T13:05:27.297Z,46.40
2022-07-28T13:08:02.639Z,46.40
2022-07-28T13:10:46.566Z,46.40
2022-07-28T13:13:22.027Z,46.40
2022-07-28T13:16:15.856Z,46.50
2022-07-28T13:18:53.616Z,46.40
2022-07-28T13:21:58.451Z,46.40
2022-07-28T13:24:32.969Z,46.40
2022-07-28T13:27:07.364Z,46.40
2022-07-28T13:29:41.298Z,46.40
2022-07-28T13:32:15.742Z,46.40
2022-07-28T13:34:49.861Z,46.40
2022-07-28T13:37:25.232Z,46.40
2022-07-28T13:40:00.915Z,46.40
2022-07-28T13:42:34.865Z,46.40
2022-07-28T13:45:11.642Z,46.40
2022-07-28T13:47:52.320Z,46.50
2022-07-28T13:50:27.678Z,46.40
2022-07-28T13:53:03.032Z,46.40
2022-07-28T13:55:38.948Z,46.50
2022-07-28T13:58:12.899Z,46.50
2022-07-28T14:00:49.533Z,46.40
2022-07-28T14:03:23.721Z,46.40
2022-07-28T14:05:59.113Z,47.00
2022-07-28T14:08:34.497Z,46.50
2022-07-28T14:11:09.026Z,46.50
2022-07-28T14:13:43.199Z,46.50
2022-07-28T14:16:17.257Z,46.50
2022-07-28T14:18:51.729Z,46.50
2022-07-28T14:21:26.224Z,46.50
2022-07-28T14:24:01.945Z,46.50
2022-07-28T14:26:36.294Z,46.40
2022-07-28T14:29:11.538Z,46.40
2022-07-28T14:31:46.016Z,46.40
2022-07-28T14:34:20.289Z,46.40
2022-07-28T14:36:56.565Z,46.40
2022-07-28T14:39:32.144Z,46.40
2022-07-28T14:42:06.470Z,46.50
2022-07-28T14:44:40.823Z,46.50
2022-07-28T14:47:15.606Z,46.50
2022-07-28T14:49:57.469Z,46.50
2022-07-28T14:52:32.635Z,46.50
2022-07-28T14:55:09.139Z,46.50
2022-07-28T14:57:50.215Z,46.50
2022-07-28T15:00:28.507Z,46.50
2022-07-28T15:03:02.611Z,46.50
2022-07-28T15:05:36.683Z,46.50
2022-07-28T15:08:10.662Z,46.50
2022-07-28T15:10:46.040Z,46.50
2022-07-28T15:13:23.531Z,46.50
2022-07-28T15:16:00.080Z,46.50
2022-07-28T15:18:34.225Z,46.50
2022-07-28T15:21:12.811Z,46.50
2022-07-28T15:23:46.806Z,46.50
2022-07-28T15:26:22.173Z,46.50
2022-07-28T15:28:56.166Z,46.50
2022-07-28T15:31:30.458Z,46.50
2022-07-28T15:34:04.638Z,46.50
2022-07-28T15:36:41.030Z,46.50
2022-07-28T15:39:15.250Z,46.50
2022-07-28T15:41:51.028Z,46.50
2022-07-28T15:44:26.397Z,46.50
2022-07-28T15:47:00.572Z,46.50
2022-07-28T15:49:37.947Z,46.50
2022-07-28T15:52:11.937Z,46.40
2022-07-28T15:54:45.820Z,46.40
2022-07-28T15:57:22.022Z,46.40
2022-07-28T15:59:55.967Z,46.40
2022-07-28T16:02:29.965Z,46.50
2022-07-28T16:05:03.983Z,46.50
2022-07-28T16:07:41.820Z,46.50
2022-07-28T16:10:18.660Z,46.50
2022-07-28T16:12:56.109Z,46.50
2022-07-28T16:15:30.054Z,46.50
2022-07-28T16:18:04.015Z,46.50
2022-07-28T16:20:38.941Z,46.60
2022-07-28T16:23:13.052Z,46.50
2022-07-28T16:25:47.006Z,46.60
2022-07-28T16:28:22.388Z,46.50
2022-07-28T16:30:56.350Z,46.60
2022-07-28T16:33:33.292Z,46.50
2022-07-28T16:36:08.001Z,46.50
2022-07-28T16:38:42.234Z,46.60
2022-07-28T16:41:16.377Z,46.50
2022-07-28T16:43:51.770Z,46.50
2022-07-28T16:46:25.749Z,46.50
2022-07-28T16:48:59.790Z,46.50
2022-07-28T16:51:33.718Z,46.50
2022-07-28T16:54:08.044Z,46.50
2022-07-28T16:56:42.568Z,46.60
2022-07-28T16:59:18.001Z,46.50
2022-07-28T17:01:52.789Z,46.60
2022-07-28T17:04:26.928Z,46.60
2022-07-28T17:07:01.021Z,46.60
2022-07-28T17:09:35.068Z,46.60
2022-07-28T17:12:09.842Z,46.60
2022-07-28T17:14:45.314Z,46.60
2022-07-28T17:17:19.831Z,46.60
2022-07-28T17:19:53.728Z,46.60
2022-07-28T17:22:27.699Z,46.60
2022-07-28T17:25:02.187Z,46.60
2022-07-28T17:27:38.238Z,46.60
2022-07-28T17:30:14.702Z,46.60
2022-07-28T17:32:48.639Z,46.60
2022-07-28T17:35:34.510Z,46.60
2022-07-28T17:38:09.697Z,46.70
2022-07-28T17:40:44.340Z,46.70
2022-07-28T17:43:18.602Z,46.70
2022-07-28T17:45:55.124Z,46.70
2022-07-28T17:48:29.368Z,46.80
2022-07-28T17:51:03.404Z,46.80
2022-07-28T17:53:39.668Z,46.80
2022-07-28T17:56:14.577Z,46.80
2022-07-28T17:58:48.522Z,46.80
2022-07-28T18:01:23.942Z,46.80
2022-07-28T18:04:00.859Z,46.90
2022-07-28T18:06:37.086Z,46.80
2022-07-28T18:09:11.693Z,46.80
2022-07-28T18:11:56.862Z,46.80
2022-07-28T18:14:35.166Z,46.80
2022-07-28T18:17:10.572Z,46.80
2022-07-28T18:19:45.661Z,46.80
2022-07-28T18:22:19.741Z,46.80
2022-07-28T18:24:53.848Z,46.80
2022-07-28T18:27:27.936Z,46.80
2022-07-28T18:30:01.970Z,46.90
2022-07-28T18:32:37.571Z,46.90
2022-07-28T18:35:11.759Z,46.90
2022-07-28T18:37:46.400Z,46.90
2022-07-28T18:40:21.727Z,46.90
2022-07-28T18:42:56.331Z,47.00
2022-07-28T18:45:30.316Z,47.00
2022-07-28T18:48:05.887Z,47.00
2022-07-28T18:50:40.992Z,47.00
2022-07-28T18:53:15.027Z,46.90
2022-07-28T18:55:48.925Z,46.90
2022-07-28T18:58:22.914Z,46.90
2022-07-28T19:00:56.857Z,46.90
2022-07-28T19:03:32.677Z,46.90
2022-07-28T19:06:06.704Z,46.90
2022-07-28T19:08:40.738Z,46.90
2022-07-28T19:11:19.517Z,46.80
2022-07-28T19:13:53.990Z,46.90
2022-07-28T19:16:28.143Z,46.90
2022-07-28T19:19:03.612Z,46.80
2022-07-28T19:21:37.873Z,47.00
2022-07-28T19:24:18.176Z,47.00
2022-07-28T19:26:53.927Z,47.00
2022-07-28T19:29:28.202Z,47.00
2022-07-28T19:32:03.366Z,47.00
2022-07-28T19:34:38.975Z,47.00
2022-07-28T19:37:15.744Z,47.00
2022-07-28T19:39:51.382Z,47.10
2022-07-28T19:42:25.277Z,47.10
2022-07-28T19:45:00.208Z,47.00
2022-07-28T19:47:36.556Z,46.90
2022-07-28T19:50:12.532Z,47.00
2022-07-28T19:52:47.502Z,47.00
2022-07-28T19:55:21.986Z,47.00
2022-07-28T19:57:56.582Z,47.00
2022-07-28T20:00:30.691Z,47.00
2022-07-28T20:03:06.464Z,47.00
2022-07-28T20:06:01.973Z,47.00
2022-07-28T20:08:36.342Z,47.00
2022-07-28T20:11:11.630Z,47.10
2022-07-28T20:13:45.867Z,47.10
2022-07-28T20:16:20.575Z,47.20
2022-07-28T20:18:54.833Z,47.10
2022-07-28T20:21:38.427Z,47.10
2022-07-28T20:24:13.730Z,47.10
2022-07-28T20:26:48.110Z,47.10
2022-07-28T20:29:22.533Z,47.10
2022-07-28T20:31:56.798Z,47.10
2022-07-28T20:34:31.041Z,47.20
2022-07-28T20:37:06.784Z,47.10
2022-07-28T20:40:01.050Z,47.10
2022-07-28T20:42:35.063Z,47.20
2022-07-28T20:45:09.930Z,47.10
2022-07-28T20:47:44.839Z,47.10
2022-07-28T20:50:20.467Z,47.20
2022-07-28T20:52:56.041Z,47.20
2022-07-28T20:55:30.237Z,47.20
2022-07-28T20:58:08.505Z,47.20
2022-07-28T21:00:42.751Z,47.20
2022-07-28T21:03:16.842Z,47.20
2022-07-28T21:05:51.003Z,47.20
2022-07-28T21:08:26.661Z,47.20
2022-07-28T21:11:01.736Z,47.20
2022-07-28T21:13:35.805Z,47.20
2022-07-28T21:16:09.852Z,47.20
2022-07-28T21:18:46.239Z,47.20
2022-07-28T21:21:20.157Z,47.20
2022-07-28T21:23:55.539Z,47.20
2022-07-28T21:26:29.544Z,47.20
2022-07-28T21:29:12.473Z,47.20
2022-07-28T21:32:04.125Z,47.20
2022-07-28T21:34:39.751Z,47.20
2022-07-28T21:37:14.322Z,47.20
2022-07-28T21:39:49.718Z,47.20
2022-07-28T21:42:23.685Z,47.20
2022-07-28T21:44:57.593Z,47.20
2022-07-28T21:47:34.345Z,47.20
2022-07-28T21:50:10.889Z,47.20
2022-07-28T21:52:44.814Z,47.20
2022-07-28T21:55:20.078Z,47.30
2022-07-28T21:57:54.022Z,47.30
2022-07-28T22:00:28.194Z,47.30
2022-07-28T22:03:02.084Z,47.30
2022-07-28T22:05:36.070Z,47.30
2022-07-28T22:08:10.004Z,47.30
2022-07-28T22:10:45.384Z,47.30
2022-07-28T22:13:19.794Z,47.30
2022-07-28T22:15:54.120Z,47.20
2022-07-28T22:18:28.041Z,47.20
2022-07-28T22:21:01.998Z,47.20
2022-07-28T22:23:38.835Z,47.20
2022-07-28T22:26:14.195Z,47.20
2022-07-28T22:28:48.322Z,47.20
2022-07-28T22:31:22.275Z,47.20
2022-07-28T22:33:56.321Z,47.20
2022-07-28T22:36:30.278Z,47.20
2022-07-28T22:39:04.698Z,47.20
2022-07-28T22:41:40.217Z,47.20
2022-07-28T22:44:16.518Z,47.20
2022-07-28T22:46:50.993Z,47.20
2022-07-28T22:49:25.539Z,47.30
2022-07-28T22:51:59.523Z,47.20
2022-07-28T22:54:33.572Z,47.30
2022-07-28T22:57:09.068Z,47.20
2022-07-28T22:59:45.079Z,47.20
2022-07-28T23:02:26.026Z,47.20
2022-07-28T23:05:00.430Z,47.20
2022-07-28T23:07:50.785Z,47.20
2022-07-28T23:10:28.371Z,47.30
2022-07-28T23:13:03.998Z,47.20
2022-07-28T23:15:40.425Z,47.20
2022-07-28T23:18:15.991Z,47.20
2022-07-28T23:20:50.105Z,47.20
2022-07-28T23:23:24.080Z,47.20
2022-07-28T23:26:00.465Z,47.20
2022-07-28T23:28:37.399Z,47.20
2022-07-28T23:31:11.410Z,47.20
2022-07-28T23:33:56.065Z,47.20
2022-07-28T23:36:31.470Z,47.20
2022-07-28T23:39:05.765Z,47.20
2022-07-28T23:41:39.916Z,47.20
2022-07-28T23:44:15.730Z,47.20
2022-07-28T23:46:50.378Z,47.20
2022-07-28T23:49:27.378Z,47.20
2022-07-28T23:52:02.079Z,47.20
2022-07-28T23:54:36.366Z,47.20
2022-07-28T23:57:11.099Z,47.20
2022-07-28T23:59:46.645Z,47.20
